createdAt,value
2022-12-12T00:01:32.275Z,12.98
2022-12-12T00:04:00.581Z,12.63
2022-12-12T00:06:28.824Z,13.15
2022-12-12T00:08:56.396Z,13.70
2022-12-12T00:11:24.819Z,13.65
2022-12-12T00:13:53.029Z,13.10
2022-12-12T00:16:21.494Z,13.85
2022-12-12T00:18:49.225Z,14.38
2022-12-12T00:21:28.446Z,13.60
2022-12-12T00:23:56.912Z,14.07
2022-12-12T00:26:27.096Z,13.48
2022-12-12T00:28:55.669Z,13.27
2022-12-12T00:31:23.399Z,14.00
2022-12-12T00:33:51.559Z,13.45
2022-12-12T00:36:22.647Z,13.65
2022-12-12T00:38:50.403Z,13.38
2022-12-12T00:41:18.436Z,13.45
2022-12-12T00:43:46.008Z,13.32
2022-12-12T00:46:18.621Z,13.75
2022-12-12T00:48:46.470Z,13.23
2022-12-12T00:51:18.907Z,13.50
2022-12-12T00:53:47.199Z,12.85
2022-12-12T00:56:16.730Z,13.85
2022-12-12T00:58:44.472Z,13.63
2022-12-12T01:01:14.987Z,13.57
2022-12-12T01:03:43.543Z,14.07
2022-12-12T01:06:11.727Z,13.63
2022-12-12T01:08:40.121Z,13.27
2022-12-12T01:11:09.342Z,13.30
2022-12-12T01:13:37.181Z,13.60
2022-12-12T01:16:06.437Z,13.02
2022-12-12T01:18:34.626Z,12.75
2022-12-12T01:21:02.240Z,13.70
2022-12-12T01:23:29.849Z,13.63
2022-12-12T01:26:02.717Z,14.55
2022-12-12T01:28:30.289Z,14.50
2022-12-12T01:30:58.002Z,13.57
2022-12-12T01:33:25.775Z,13.77
2022-12-12T01:35:53.514Z,14.45
2022-12-12T01:38:21.189Z,13.02
2022-12-12T01:40:48.763Z,13.55
2022-12-12T01:43:18.047Z,13.70
2022-12-12T01:46:02.517Z,13.20
2022-12-12T01:48:38.479Z,14.02
2022-12-12T01:51:11.151Z,14.15
2022-12-12T01:53:38.923Z,14.13
2022-12-12T01:56:12.313Z,13.88
2022-12-12T01:58:46.802Z,13.23
2022-12-12T02:01:15.195Z,13.25
2022-12-12T02:03:43.596Z,13.48
2022-12-12T02:06:14.791Z,13.15
2022-12-12T02:08:43.242Z,13.25
2022-12-12T02:11:10.821Z,14.07
2022-12-12T02:13:38.465Z,13.85
2022-12-12T02:16:37.531Z,14.68
2022-12-12T02:19:36.191Z,14.13
2022-12-12T02:22:09.287Z,13.48
2022-12-12T02:24:51.586Z,14.20
2022-12-12T02:27:28.078Z,14.38
2022-12-12T02:32:41.325Z,14.15
2022-12-12T02:35:32.163Z,14.95
2022-12-12T02:38:26.867Z,14.70
2022-12-12T02:40:54.399Z,14.32
2022-12-12T02:43:47.547Z,13.95
2022-12-12T02:46:39.317Z,14.15
2022-12-12T02:49:14.148Z,15.15
2022-12-12T02:51:42.463Z,14.13
2022-12-12T02:54:15.619Z,14.02
2022-12-12T02:56:50.576Z,15.00
2022-12-12T02:59:37.903Z,14.90
2022-12-12T03:02:28.733Z,15.10
2022-12-12T03:05:26.701Z,15.75
2022-12-12T03:08:28.183Z,15.18
2022-12-12T03:10:55.773Z,14.02
2022-12-12T03:13:52.035Z,14.40
2022-12-12T03:16:27.467Z,14.48
2022-12-12T03:19:19.703Z,14.43
2022-12-12T03:21:54.764Z,13.07
2022-12-12T03:24:24.796Z,15.27
2022-12-12T03:27:16.311Z,13.57
2022-12-12T03:30:12.340Z,15.07
2022-12-12T03:32:43.254Z,14.68
2022-12-12T03:35:42.822Z,16.10
2022-12-12T03:38:34.744Z,15.57
2022-12-12T03:41:08.426Z,16.05
2022-12-12T03:44:01.536Z,15.68
2022-12-12T03:46:37.091Z,15.68
2022-12-12T03:49:17.886Z,16.27
2022-12-12T03:51:54.045Z,14.90
2022-12-12T03:54:42.610Z,14.55
2022-12-12T03:57:28.387Z,16.73
2022-12-12T04:00:07.289Z,15.23
2022-12-12T04:02:46.870Z,16.17
2022-12-12T04:05:36.036Z,15.18
2022-12-12T04:08:13.329Z,15.68
2022-12-12T04:11:05.289Z,15.25
2022-12-12T04:14:10.095Z,15.13
2022-12-12T04:16:42.089Z,14.80
2022-12-12T04:19:45.290Z,15.88
2022-12-12T04:22:36.582Z,14.50
2022-12-12T04:25:10.729Z,15.25
2022-12-12T04:27:44.779Z,14.10
2022-12-12T04:30:13.693Z,15.20
2022-12-12T04:32:43.270Z,16.13
2022-12-12T04:35:20.458Z,15.63
2022-12-12T04:37:56.407Z,15.05
2022-12-12T04:40:29.605Z,15.40
2022-12-12T04:43:28.198Z,16.17
2022-12-12T04:46:02.603Z,16.25
2022-12-12T04:48:38.411Z,15.75
2022-12-12T04:51:07.642Z,16.15
2022-12-12T04:53:38.361Z,15.52
2022-12-12T04:56:08.759Z,15.40
2022-12-12T04:58:37.867Z,16.13
2022-12-12T05:01:15.930Z,16.70
2022-12-12T05:04:03.887Z,16.67
2022-12-12T05:06:40.980Z,17.05
2022-12-12T05:09:08.835Z,17.58
2022-12-12T05:11:36.468Z,17.25
2022-12-12T05:14:05.355Z,17.65
2022-12-12T05:16:41.052Z,17.45
2022-12-12T05:19:08.684Z,16.80
2022-12-12T05:21:36.354Z,17.20
2022-12-12T05:24:04.062Z,16.27
2022-12-12T05:26:33.985Z,16.45
2022-12-12T05:29:07.243Z,15.70
2022-12-12T05:31:35.971Z,17.00
2022-12-12T05:34:04.448Z,16.63
2022-12-12T05:36:32.178Z,16.98
2022-12-12T05:38:59.744Z,16.70
2022-12-12T05:41:27.783Z,17.73
2022-12-12T05:43:55.361Z,17.02
2022-12-12T05:46:22.993Z,17.05
2022-12-12T05:48:50.887Z,16.65
2022-12-12T05:51:19.056Z,16.67
2022-12-12T05:53:47.397Z,16.25
2022-12-12T05:56:15.010Z,15.45
2022-12-12T05:58:42.674Z,16.60
2022-12-12T06:01:10.750Z,16.23
2022-12-12T06:03:38.450Z,15.02
2022-12-12T06:06:06.296Z,15.05
2022-12-12T06:08:34.033Z,16.35
2022-12-12T06:11:04.368Z,15.85
2022-12-12T06:13:31.973Z,15.65
2022-12-12T06:15:59.587Z,16.35
2022-12-12T06:18:27.142Z,16.95
2022-12-12T06:21:06.417Z,16.92
2022-12-12T06:23:37.227Z,17.17
2022-12-12T06:26:05.371Z,17.88
2022-12-12T06:28:33.064Z,17.17
2022-12-12T06:31:01.016Z,17.50
2022-12-12T06:33:29.607Z,16.73
2022-12-12T06:36:04.788Z,17.20
2022-12-12T06:38:32.906Z,16.65
2022-12-12T06:41:04.837Z,16.63
2022-12-12T06:43:32.449Z,16.60
2022-12-12T06:46:04.482Z,14.20
2022-12-12T06:48:33.513Z,16.60
2022-12-12T06:51:05.338Z,18.05
2022-12-12T06:53:32.951Z,18.27
2022-12-12T06:56:00.531Z,18.05
2022-12-12T06:58:28.047Z,18.95
2022-12-12T07:00:55.885Z,18.90
2022-12-12T07:03:23.486Z,17.23
2022-12-12T07:05:51.085Z,17.67
2022-12-12T07:08:18.674Z,17.85
2022-12-12T07:10:46.302Z,17.75
2022-12-12T07:13:14.032Z,15.82
2022-12-12T07:15:46.609Z,17.08
2022-12-12T07:18:14.542Z,17.20
2022-12-12T07:20:42.966Z,15.70
2022-12-12T07:23:10.911Z,16.48
2022-12-12T07:25:42.388Z,15.55
2022-12-12T07:28:11.462Z,15.82
2022-12-12T07:30:41.439Z,17.10
2022-12-12T07:33:09.188Z,16.83
2022-12-12T07:35:36.926Z,18.25
2022-12-12T07:38:05.110Z,16.67
2022-12-12T07:40:33.606Z,15.35
2022-12-12T07:43:04.367Z,16.40
2022-12-12T07:45:31.968Z,17.27
2022-12-12T07:47:59.547Z,19.60
2022-12-12T07:50:27.188Z,18.83
2022-12-12T07:52:54.854Z,16.52
2022-12-12T07:55:22.368Z,17.55
2022-12-12T07:57:50.105Z,18.15
2022-12-12T08:00:18.465Z,17.83
2022-12-12T08:02:46.110Z,19.10
2022-12-12T08:05:13.942Z,17.65
2022-12-12T08:07:41.876Z,19.67
2022-12-12T08:10:09.775Z,18.17
2022-12-12T08:12:37.360Z,19.02
2022-12-12T08:15:05.345Z,20.02
2022-12-12T08:17:32.969Z,18.77
2022-12-12T08:20:00.545Z,18.42
2022-12-12T08:22:28.080Z,18.73
2022-12-12T08:24:55.613Z,17.38
2022-12-12T08:27:23.176Z,18.25
2022-12-12T08:29:52.934Z,17.88
2022-12-12T08:32:20.793Z,18.85
2022-12-12T08:34:48.385Z,16.25
2022-12-12T08:37:16.059Z,18.27
2022-12-12T08:39:43.657Z,17.67
2022-12-12T08:42:12.389Z,15.98
2022-12-12T08:44:39.928Z,15.45
2022-12-12T08:47:07.863Z,17.85
2022-12-12T08:49:35.502Z,16.50
2022-12-12T08:52:06.005Z,18.85
2022-12-12T08:54:33.559Z,20.10
2022-12-12T08:57:01.428Z,19.98
2022-12-12T08:59:29.037Z,19.75
2022-12-12T09:01:56.678Z,20.35
2022-12-12T09:04:24.420Z,19.02
2022-12-12T09:06:52.126Z,20.67
2022-12-12T09:09:19.724Z,20.50
2022-12-12T09:11:47.309Z,15.75
2022-12-12T09:14:14.839Z,16.33
2022-12-12T09:16:42.497Z,17.13
2022-12-12T09:19:10.067Z,17.65
2022-12-12T09:21:37.705Z,17.65
2022-12-12T09:24:05.522Z,15.45
2022-12-12T09:26:33.073Z,18.17
2022-12-12T09:29:00.635Z,15.75
2022-12-12T09:31:28.363Z,16.52
2022-12-12T09:33:55.986Z,14.70
2022-12-12T09:36:23.508Z,16.20
2022-12-12T09:38:51.064Z,18.13
2022-12-12T09:41:21.171Z,16.40
2022-12-12T09:44:05.737Z,13.18
2022-12-12T09:46:37.845Z,14.23
2022-12-12T09:49:12.354Z,18.00
2022-12-12T09:51:41.876Z,16.42
2022-12-12T09:54:16.734Z,14.38
2022-12-12T09:56:57.911Z,15.38
2022-12-12T09:59:32.580Z,16.55
2022-12-12T10:02:15.734Z,16.55
2022-12-12T10:05:12.592Z,13.60
2022-12-12T10:07:52.084Z,16.38
2022-12-12T10:10:30.901Z,16.00
2022-12-12T10:12:59.048Z,15.73
2022-12-12T10:15:39.567Z,14.73
2022-12-12T10:18:21.850Z,16.25
2022-12-12T10:20:51.458Z,15.25
2022-12-12T10:23:46.462Z,15.20
2022-12-12T10:26:19.668Z,14.73
2022-12-12T10:28:50.616Z,12.32
2022-12-12T10:31:56.704Z,15.88
2022-12-12T10:34:43.566Z,15.05
2022-12-12T10:37:13.911Z,15.00
2022-12-12T10:40:02.881Z,16.25
2022-12-12T10:42:54.070Z,15.80
2022-12-12T10:45:33.841Z,13.98
2022-12-12T10:48:01.862Z,10.32
2022-12-12T10:50:43.290Z,14.43
2022-12-12T10:53:11.997Z,13.77
2022-12-12T10:55:49.118Z,11.48
2022-12-12T10:58:19.465Z,11.10
2022-12-12T11:00:49.461Z,15.93
2022-12-12T11:03:23.085Z,16.55
2022-12-12T11:05:50.813Z,16.85
2022-12-12T11:08:35.800Z,16.15
2022-12-12T11:11:15.079Z,15.45
2022-12-12T11:14:02.399Z,15.00
2022-12-12T11:16:41.446Z,17.35
2022-12-12T11:19:24.298Z,14.82
2022-12-12T11:21:52.735Z,15.18
2022-12-12T11:24:23.036Z,12.23
2022-12-12T11:26:58.207Z,12.88
2022-12-12T11:29:40.167Z,11.63
2022-12-12T11:32:25.489Z,12.55
2022-12-12T11:35:02.216Z,13.50
2022-12-12T11:37:48.865Z,13.75
2022-12-12T11:40:34.969Z,12.88
2022-12-12T11:43:26.986Z,15.90
2022-12-12T11:46:15.917Z,12.68
2022-12-12T11:48:52.735Z,14.48
2022-12-12T11:51:45.475Z,11.88
2022-12-12T11:54:31.776Z,13.40
2022-12-12T11:57:14.782Z,12.57
2022-12-12T11:59:45.054Z,14.32
2022-12-12T12:02:45.206Z,15.88
2022-12-12T12:05:15.745Z,15.63
2022-12-12T12:08:18.890Z,15.30
2022-12-12T12:10:52.310Z,12.68
2022-12-12T12:13:38.587Z,11.15
2022-12-12T12:18:58.606Z,12.50
2022-12-12T12:21:43.736Z,11.77
2022-12-12T12:24:32.238Z,15.25
2022-12-12T12:27:11.300Z,14.77
2022-12-12T12:29:50.710Z,12.68
2022-12-12T12:32:22.402Z,13.75
2022-12-12T12:34:58.850Z,13.60
2022-12-12T12:40:22.907Z,14.25
2022-12-12T12:43:10.146Z,14.05
2022-12-12T12:45:57.782Z,13.98
2022-12-12T12:48:34.442Z,13.65
2022-12-12T12:51:26.485Z,12.82
2022-12-12T12:54:18.425Z,13.15
2022-12-12T12:57:04.546Z,12.82
2022-12-12T12:59:42.419Z,13.13
2022-12-12T13:02:30.803Z,13.75
2022-12-12T13:05:18.662Z,13.15
2022-12-12T13:07:48.430Z,13.05
2022-12-12T13:10:25.257Z,12.63
2022-12-12T13:12:57.481Z,12.65
2022-12-12T13:15:31.703Z,12.98
2022-12-12T13:18:04.541Z,12.57
2022-12-12T13:20:36.107Z,12.25
2022-12-12T13:23:32.365Z,12.32
2022-12-12T13:26:13.314Z,11.27
2022-12-12T13:29:06.069Z,11.88
2022-12-12T13:31:52.429Z,12.73
2022-12-12T13:36:49.866Z,11.30
2022-12-12T13:39:32.574Z,11.82
2022-12-12T13:42:01.708Z,11.60
2022-12-12T13:44:44.462Z,11.57
2022-12-12T13:47:24.075Z,10.77
2022-12-12T13:49:54.683Z,10.60
2022-12-12T13:52:25.014Z,10.98
2022-12-12T13:55:18.198Z,10.43
2022-12-12T13:58:08.047Z,10.77
2022-12-12T14:00:42.492Z,10.68
2022-12-12T14:03:12.914Z,9.85
2022-12-12T14:05:50.650Z,10.02
2022-12-12T14:08:18.392Z,10.27
2022-12-12T14:10:46.315Z,10.90
2022-12-12T14:13:22.730Z,10.48
2022-12-12T14:21:08.791Z,9.55
2022-12-12T14:23:42.761Z,10.75
2022-12-12T14:26:28.267Z,9.88
2022-12-12T14:29:17.682Z,10.38
2022-12-12T14:32:06.554Z,10.10
2022-12-12T14:35:09.106Z,9.60
2022-12-12T14:37:51.772Z,9.57
2022-12-12T14:40:30.745Z,10.35
2022-12-12T14:43:19.068Z,9.95
2022-12-12T14:45:49.962Z,9.45
2022-12-12T14:48:37.032Z,9.60
2022-12-12T14:51:10.751Z,9.27
2022-12-12T14:53:38.360Z,9.70
2022-12-12T14:56:20.819Z,9.75
2022-12-12T14:58:58.412Z,8.85
2022-12-12T15:01:30.437Z,9.82
2022-12-12T15:03:59.030Z,8.93
2022-12-12T15:06:49.425Z,9.43
2022-12-12T15:09:29.228Z,10.38
2022-12-12T15:12:11.704Z,10.35
2022-12-12T15:14:46.267Z,9.88
2022-12-12T15:17:16.323Z,10.45
2022-12-12T15:19:52.396Z,9.95
2022-12-12T15:22:31.807Z,11.45
2022-12-12T15:25:17.016Z,10.55
2022-12-12T15:27:52.359Z,11.98
2022-12-12T15:30:44.352Z,10.98
2022-12-12T15:33:26.570Z,11.23
2022-12-12T15:36:02.699Z,12.30
2022-12-12T15:41:00.297Z,11.38
2022-12-12T15:43:29.616Z,12.10
2022-12-12T15:46:16.917Z,12.13
2022-12-12T15:48:46.156Z,12.52
2022-12-12T15:51:18.376Z,12.13
2022-12-12T15:53:51.107Z,13.10
2022-12-12T15:56:21.713Z,14.07
2022-12-12T15:58:58.906Z,13.52
2022-12-12T16:01:41.360Z,13.82
2022-12-12T16:04:11.927Z,14.00
2022-12-12T16:06:41.711Z,13.57
2022-12-12T16:09:12.062Z,12.93
2022-12-12T16:11:53.283Z,12.73
2022-12-12T16:14:42.094Z,12.95
2022-12-12T16:17:20.407Z,13.70
2022-12-12T16:20:04.295Z,14.60
2022-12-12T16:22:34.904Z,12.93
2022-12-12T16:25:21.464Z,14.95
2022-12-12T16:28:24.727Z,14.32
2022-12-12T16:30:55.960Z,14.98
2022-12-12T16:33:34.098Z,15.73
2022-12-12T16:36:04.549Z,14.52
2022-12-12T16:38:33.115Z,15.20
2022-12-12T16:41:04.646Z,15.30
2022-12-12T16:43:32.477Z,14.82
2022-12-12T16:46:00.551Z,14.65
2022-12-12T16:48:33.696Z,15.27
2022-12-12T16:51:09.180Z,14.63
2022-12-12T16:53:37.334Z,15.32
2022-12-12T16:56:05.166Z,15.05
2022-12-12T16:58:33.177Z,15.30
2022-12-12T17:01:01.825Z,15.90
2022-12-12T17:03:30.485Z,15.98
2022-12-12T17:05:58.360Z,17.38
2022-12-12T17:08:26.418Z,16.60
2022-12-12T17:11:10.073Z,17.58
2022-12-12T17:13:48.178Z,16.90
2022-12-12T17:16:15.899Z,17.15
2022-12-12T17:18:43.777Z,16.67
2022-12-12T17:21:11.406Z,17.33
2022-12-12T17:23:39.097Z,17.83
2022-12-12T17:26:06.954Z,17.92
2022-12-12T17:28:35.099Z,17.55
2022-12-12T17:31:03.072Z,16.50
2022-12-12T17:33:30.773Z,15.35
2022-12-12T17:36:03.825Z,16.08
2022-12-12T17:38:31.919Z,14.68
2022-12-12T17:41:04.205Z,14.85
2022-12-12T17:43:32.599Z,16.08
2022-12-12T17:46:02.469Z,15.23
2022-12-12T17:48:31.686Z,16.08
2022-12-12T17:51:01.697Z,16.58
2022-12-12T17:53:36.654Z,16.10
2022-12-12T17:58:40.980Z,15.57
2022-12-12T18:01:14.239Z,16.58
2022-12-12T18:03:42.443Z,17.55
2022-12-12T18:06:10.884Z,16.52
2022-12-12T18:08:38.860Z,17.23
2022-12-12T18:11:08.809Z,17.30
2022-12-12T18:13:38.592Z,19.25
2022-12-12T18:16:06.925Z,19.45
2022-12-12T18:18:34.773Z,20.85
2022-12-12T18:21:42.858Z,20.67
2022-12-12T18:24:04.564Z,23.27
2022-12-12T18:26:32.707Z,23.17
2022-12-12T18:29:02.966Z,23.90
2022-12-12T18:31:31.018Z,22.20
2022-12-12T18:33:59.330Z,21.20
2022-12-12T18:36:29.091Z,21.10
2022-12-12T18:38:57.730Z,22.15
2022-12-12T18:41:27.325Z,21.83
2022-12-12T18:43:55.472Z,20.52
2022-12-12T18:46:26.518Z,20.60
2022-12-12T18:48:54.354Z,21.60
2022-12-12T18:51:24.307Z,21.33
2022-12-12T18:53:54.454Z,21.00
2022-12-12T18:56:24.500Z,20.85
2022-12-12T18:58:56.628Z,20.20
2022-12-12T19:01:27.051Z,20.77
2022-12-12T19:03:56.797Z,19.88
2022-12-12T19:06:28.635Z,21.85
2022-12-12T19:08:56.294Z,20.85
2022-12-12T19:11:23.879Z,20.67
2022-12-12T19:13:51.924Z,19.67
2022-12-12T19:16:20.831Z,19.38
2022-12-12T19:18:48.558Z,19.77
2022-12-12T19:21:19.921Z,20.33
2022-12-12T19:23:48.047Z,18.83
2022-12-12T19:26:26.008Z,17.10
2022-12-12T19:29:06.368Z,15.38
2022-12-12T19:31:35.941Z,15.23
2022-12-12T19:34:06.083Z,15.23
2022-12-12T19:36:34.448Z,14.70
2022-12-12T19:39:04.884Z,13.98
2022-12-12T19:41:32.830Z,15.07
2022-12-12T19:44:01.987Z,13.43
2022-12-12T19:46:31.244Z,15.30
2022-12-12T19:49:01.727Z,15.23
2022-12-12T19:51:32.587Z,15.70
2022-12-12T19:54:01.694Z,15.13
2022-12-12T19:56:31.599Z,14.85
2022-12-12T19:58:59.633Z,16.25
2022-12-12T20:01:29.309Z,16.23
2022-12-12T20:04:01.065Z,17.80
2022-12-12T20:06:28.905Z,17.70
2022-12-12T20:08:58.538Z,18.13
2022-12-12T20:11:26.184Z,16.42
2022-12-12T20:13:55.868Z,17.10
2022-12-12T20:16:25.647Z,17.70
2022-12-12T20:18:53.814Z,18.13
2022-12-12T20:21:59.094Z,17.58
2022-12-12T20:24:13.047Z,16.90
2022-12-12T20:26:41.369Z,18.25
2022-12-12T20:29:10.987Z,21.92
2022-12-12T20:31:43.525Z,24.75
2022-12-12T20:34:13.703Z,30.98
2022-12-12T20:36:42.034Z,28.05
2022-12-12T20:39:12.718Z,24.42
2022-12-12T20:41:40.808Z,21.33
2022-12-12T20:44:10.338Z,17.42
2022-12-12T20:46:40.188Z,16.88
2022-12-12T20:49:10.940Z,16.13
2022-12-12T20:51:55.946Z,16.63
2022-12-12T20:54:24.891Z,15.68
2022-12-12T20:56:53.831Z,14.52
2022-12-12T20:59:21.385Z,15.52
2022-12-12T21:01:49.063Z,16.00
2022-12-12T21:04:16.997Z,16.90
2022-12-12T21:06:49.723Z,16.73
2022-12-12T21:09:23.841Z,17.88
2022-12-12T21:11:54.259Z,18.23
2022-12-12T21:14:21.971Z,16.52
2022-12-12T21:16:49.771Z,15.80
2022-12-12T21:19:19.008Z,16.23
2022-12-12T21:21:47.178Z,16.80
2022-12-12T21:24:16.402Z,16.85
2022-12-12T21:26:44.441Z,16.63
2022-12-12T21:29:12.210Z,16.75
2022-12-12T21:31:49.939Z,17.00
2022-12-12T21:34:22.352Z,17.15
2022-12-12T21:36:54.346Z,16.05
2022-12-12T21:39:23.838Z,19.13
2022-12-12T21:41:51.750Z,20.48
2022-12-12T21:44:20.279Z,20.60
2022-12-12T21:46:48.387Z,17.65
2022-12-12T21:49:28.339Z,16.50
2022-12-12T21:52:01.081Z,16.60
2022-12-12T21:54:29.341Z,16.08
2022-12-12T21:57:00.773Z,16.67
2022-12-12T21:59:28.988Z,17.15
2022-12-12T22:01:58.692Z,19.17
2022-12-12T22:04:26.792Z,17.90
2022-12-12T22:06:54.444Z,19.23
2022-12-12T22:09:22.052Z,16.77
2022-12-12T22:11:51.887Z,17.88
2022-12-12T22:14:21.161Z,16.83
2022-12-12T22:16:49.038Z,16.10
2022-12-12T22:19:17.376Z,15.90
2022-12-12T22:21:46.579Z,16.05
2022-12-12T22:24:14.729Z,15.38
2022-12-12T22:26:45.436Z,15.65
2022-12-12T22:29:18.608Z,15.57
2022-12-12T22:31:46.603Z,16.40
2022-12-12T22:34:20.235Z,16.65
2022-12-12T22:36:48.106Z,15.98
2022-12-12T22:39:23.577Z,15.48
2022-12-12T22:41:51.408Z,15.90
2022-12-12T22:44:21.338Z,16.52
2022-12-12T22:46:50.621Z,16.00
2022-12-12T22:49:20.974Z,14.45
2022-12-12T22:51:49.202Z,15.07
2022-12-12T22:54:17.157Z,14.52
2022-12-12T22:56:44.850Z,14.13
2022-12-12T22:59:13.680Z,14.65
2022-12-12T23:01:41.815Z,14.90
2022-12-12T23:04:13.545Z,14.30
2022-12-12T23:06:42.612Z,13.80
2022-12-12T23:09:15.944Z,13.50
2022-12-12T23:11:44.369Z,13.80
2022-12-12T23:14:14.820Z,14.77
2022-12-12T23:16:42.940Z,14.95
2022-12-12T23:19:10.979Z,14.30
2022-12-12T23:21:38.617Z,13.98
2022-12-12T23:24:07.021Z,14.50
2022-12-12T23:26:36.599Z,14.65
2022-12-12T23:29:08.057Z,14.63
2022-12-12T23:31:37.481Z,14.02
2022-12-12T23:34:13.536Z,14.88
2022-12-12T23:36:42.277Z,14.70
2022-12-12T23:39:12.403Z,14.23
2022-12-12T23:41:40.571Z,14.25
2022-12-12T23:44:08.824Z,13.98
2022-12-12T23:46:37.182Z,14.68
2022-12-12T23:49:12.410Z,13.98
2022-12-12T23:51:45.215Z,14.68
2022-12-12T23:54:16.112Z,14.80
2022-12-12T23:56:44.581Z,14.43
2022-12-12T23:59:17.537Z,14.85
